Mr Lloyd — WDB9843 — position and weather

sailwx.info

Track history (hours):
 
Tides and Currents Weather Stations Pressure Air Temp Water Temp Dewpoint Dewpoint Depression Visibility Wind Speed Wind Dir Waves Ship Positions

Mr Lloyd

Owner: D P CREWBOATS LLC, LOCKPORT, LA. More information available from US FCC via Universal Licensing System and Coast Guard Vessel Documentation Center.

Last reported at 2017-Oct-28 00:39 UTC. Time now 2017-Nov-24 00:08 UTC.
Position N 29°38' W 092°16'.
Warning: this ship's position is 26 days out of date.

Length 48 m; draft 2.5 m.

Type: Passenger vessel. MMSI: 366983730.

Date/timePositionNaut miles runAvg speedWind from/ knotsBaromVisibWave heightAir tempDewpointWater temp
2017-Oct-28 00:39N 29°38' W 092°16'321.3
2017-Oct-28 00:30N 29°41' W 092°15'713.7
2017-Oct-28 00:01N 29°47' W 092°11'0 0.1
2017-Oct-27 23:30N 29°47' W 092°11'0 0.0
2017-Oct-27 23:00N 29°47' W 092°11'0 0.1
2017-Oct-27 22:30N 29°47' W 092°11'3 5.4
2017-Oct-27 22:00N 29°45' W 092°13'7 0.5
2017-Oct-27 06:21N 29°38' W 092°16'721.4
2017-Oct-27 06:00N 29°45' W 092°13'2 4.9
2017-Oct-27 05:31N 29°47' W 092°11'0 0.0
2017-Oct-27 05:01N 29°47' W 092°11'0 0.0
2017-Oct-27 04:30N 29°47' W 092°11'0 0.0
2017-Oct-27 04:01N 29°47' W 092°11'0 0.0
2017-Oct-27 03:31N 29°47' W 092°11'0 0.0
2017-Oct-27 03:01N 29°47' W 092°11'0 0.0
2017-Oct-27 02:31N 29°47' W 092°11'0 0.0
2017-Oct-27 02:01N 29°47' W 092°11'0 0.1
2017-Oct-27 01:31N 29°47' W 092°11'0 0.0
2017-Oct-27 01:00N 29°47' W 092°11'2 4.4
2017-Oct-27 00:30N 29°45' W 092°13'918.2
2017-Oct-27 00:01N 29°37' W 092°17'2 0.0
2017-Oct-25 10:01N 29°35' W 092°18'118.2
2017-Oct-25 09:58N 29°36' W 092°17'818.0
2017-Oct-25 09:30N 29°44' W 092°14'4 7.9
2017-Oct-25 09:00N 29°47' W 092°11'0 0.0
2017-Oct-25 08:31N 29°47' W 092°11'0 0.0
2017-Oct-25 08:00N 29°47' W 092°11'0 0.0
2017-Oct-25 07:30N 29°47' W 092°11'0 0.0
2017-Oct-25 07:00N 29°47' W 092°11'0 0.0
2017-Oct-25 06:30N 29°47' W 092°11'0 0.0
2017-Oct-25 06:00N 29°47' W 092°11'0 0.0
2017-Oct-25 05:30N 29°47' W 092°11'0 0.0
2017-Oct-25 05:00N 29°47' W 092°11'0 0.6
2017-Oct-25 04:30N 29°47' W 092°11'0 0.0
2017-Oct-25 04:00N 29°47' W 092°11'1 2.9
2017-Oct-25 03:30N 29°46' W 092°12'1019.4
2017-Oct-25 03:00N 29°37' W 092°17'  
2017-Oct-22 05:08N 29°38' W 092°16'216.2
2017-Oct-22 05:00N 29°40' W 092°15'612.8
2017-Oct-22 04:30N 29°45' W 092°12'2 3.5
2017-Oct-22 04:00N 29°47' W 092°11'0 0.0
2017-Oct-22 03:30N 29°47' W 092°11'2 4.2
2017-Oct-22 03:01N 29°45' W 092°12'  
2017-Oct-18 06:56N 29°38' W 092°16'512.9
2017-Oct-18 06:31N 29°43' W 092°15'5 9.2
2017-Oct-18 06:00N 29°46' W 092°11'1 1.6
2017-Oct-18 05:30N 29°47' W 092°11'0 0.0
2017-Oct-18 05:00N 29°47' W 092°11'0 0.5
2017-Oct-18 04:30N 29°47' W 092°11'0 0.0
2017-Oct-18 04:00N 29°47' W 092°11'0 0.0
2017-Oct-18 03:30N 29°47' W 092°11'0 0.0
2017-Oct-18 03:00N 29°47' W 092°11'1 1.1
2017-Oct-18 02:30N 29°46' W 092°11'714.1
2017-Oct-18 02:01N 29°41' W 092°15'611.8
2017-Oct-18 01:29N 29°35' W 092°18'  
Track history (hours):
 
Tides and Currents Weather Stations Pressure Air Temp Water Temp Dewpoint Dewpoint Depression Visibility Wind Speed Wind Dir Waves Ship Positions

Mr Lloyd

Owner: D P CREWBOATS LLC, LOCKPORT, LA. More information available from US FCC via Universal Licensing System and Coast Guard Vessel Documentation Center.

Last reported at 2017-Oct-28 00:39 UTC. Time now 2017-Nov-24 00:08 UTC.
Position N 29°38' W 092°16'.
Warning: this ship's position is 26 days out of date.

Length 48 m; draft 2.5 m.

Type: Passenger vessel. MMSI: 366983730.

Date/timePositionNaut miles runAvg speedWind from/ knotsBaromVisibWave heightAir tempDewpointWater temp
2017-Oct-28 00:39N 29°38' W 092°16'321.3
2017-Oct-28 00:30N 29°41' W 092°15'713.7
2017-Oct-28 00:01N 29°47' W 092°11'0 0.1
2017-Oct-27 23:30N 29°47' W 092°11'0 0.0
2017-Oct-27 23:00N 29°47' W 092°11'0 0.1
2017-Oct-27 22:30N 29°47' W 092°11'3 5.4
2017-Oct-27 22:00N 29°45' W 092°13'7 0.5
2017-Oct-27 06:21N 29°38' W 092°16'721.4
2017-Oct-27 06:00N 29°45' W 092°13'2 4.9
2017-Oct-27 05:31N 29°47' W 092°11'0 0.0
2017-Oct-27 05:01N 29°47' W 092°11'0 0.0
2017-Oct-27 04:30N 29°47' W 092°11'0 0.0
2017-Oct-27 04:01N 29°47' W 092°11'0 0.0
2017-Oct-27 03:31N 29°47' W 092°11'0 0.0
2017-Oct-27 03:01N 29°47' W 092°11'0 0.0
2017-Oct-27 02:31N 29°47' W 092°11'0 0.0
2017-Oct-27 02:01N 29°47' W 092°11'0 0.1
2017-Oct-27 01:31N 29°47' W 092°11'0 0.0
2017-Oct-27 01:00N 29°47' W 092°11'2 4.4
2017-Oct-27 00:30N 29°45' W 092°13'918.2
2017-Oct-27 00:01N 29°37' W 092°17'2 0.0
2017-Oct-25 10:01N 29°35' W 092°18'118.2
2017-Oct-25 09:58N 29°36' W 092°17'818.0
2017-Oct-25 09:30N 29°44' W 092°14'4 7.9
2017-Oct-25 09:00N 29°47' W 092°11'0 0.0
2017-Oct-25 08:31N 29°47' W 092°11'0 0.0
2017-Oct-25 08:00N 29°47' W 092°11'0 0.0
2017-Oct-25 07:30N 29°47' W 092°11'0 0.0
2017-Oct-25 07:00N 29°47' W 092°11'0 0.0
2017-Oct-25 06:30N 29°47' W 092°11'0 0.0
2017-Oct-25 06:00N 29°47' W 092°11'0 0.0
2017-Oct-25 05:30N 29°47' W 092°11'0 0.0
2017-Oct-25 05:00N 29°47' W 092°11'0 0.6
2017-Oct-25 04:30N 29°47' W 092°11'0 0.0
2017-Oct-25 04:00N 29°47' W 092°11'1 2.9
2017-Oct-25 03:30N 29°46' W 092°12'1019.4
2017-Oct-25 03:00N 29°37' W 092°17'  
2017-Oct-22 05:08N 29°38' W 092°16'216.2
2017-Oct-22 05:00N 29°40' W 092°15'612.8
2017-Oct-22 04:30N 29°45' W 092°12'2 3.5
2017-Oct-22 04:00N 29°47' W 092°11'0 0.0
2017-Oct-22 03:30N 29°47' W 092°11'2 4.2
2017-Oct-22 03:01N 29°45' W 092°12'  
2017-Oct-18 06:56N 29°38' W 092°16'512.9
2017-Oct-18 06:31N 29°43' W 092°15'5 9.2
2017-Oct-18 06:00N 29°46' W 092°11'1 1.6
2017-Oct-18 05:30N 29°47' W 092°11'0 0.0
2017-Oct-18 05:00N 29°47' W 092°11'0 0.5
2017-Oct-18 04:30N 29°47' W 092°11'0 0.0
2017-Oct-18 04:00N 29°47' W 092°11'0 0.0
2017-Oct-18 03:30N 29°47' W 092°11'0 0.0
2017-Oct-18 03:00N 29°47' W 092°11'1 1.1
2017-Oct-18 02:30N 29°46' W 092°11'714.1
2017-Oct-18 02:01N 29°41' W 092°15'611.8
2017-Oct-18 01:29N 29°35' W 092°18'  

Dump ship's entire track history